Time;durP1;ratioP1;P1;durP2;ratioP2;P2;SDS_P1;SDS_P2;PMS_P1;PMS_P2;Temp;Humidity;BMP_temperature;BMP_pressure;BME280_temperature;BME280_humidity;BME280_pressure;Samples;Min_cycle;Max_cycle;Signal;HPM_P1;HPM_P2
2022/12/26 09:45:12;;;;;;;5.90;4.38;;;;;;;12.86;71.78;99873.22;6027191;23;21102;-83
2022/12/26 09:47:46;;;;;;;9.57;5.45;;;;;;;12.86;71.75;99879.31;6027253;23;20324;-83
2022/12/26 09:50:19;;;;;;;5.63;4.85;;;;;;;12.84;72.01;99883.84;6063012;23;20544;-84
2022/12/26 09:52:51;;;;;;;5.60;4.45;;;;;;;12.82;72.31;99893.66;6063708;23;20177;-82
2022/12/26 09:55:28;;;;;;;7.35;6.55;;;;;;;12.80;72.36;99904.31;6063435;23;20181;-86
2022/12/26 09:57:58;;;;;;;7.63;5.88;;;;;;;12.78;72.60;99902.72;6064856;23;20201;-85
2022/12/26 10:00:32;;;;;;;7.32;5.97;;;;;;;12.77;72.40;99908.94;6064629;23;20176;-85
2022/12/26 10:02:59;;;;;;;5.43;4.07;;;;;;;12.76;72.88;99900.19;6063784;23;20552;-85
2022/12/26 10:05:30;;;;;;;6.30;5.40;;;;;;;12.74;73.13;99909.97;6067771;23;20197;-85
2022/12/26 10:08:13;;;;;;;9.27;5.28;;;;;;;12.73;73.29;99907.47;6075937;23;20200;-85
2022/12/26 10:10:50;;;;;;;7.55;5.22;;;;;;;12.71;73.38;99923.38;6071213;23;20181;-85
2022/12/26 10:13:32;;;;;;;9.13;5.80;;;;;;;12.70;73.34;99928.75;6072347;23;20643;-84
2022/12/26 10:16:20;;;;;;;5.72;5.00;;;;;;;12.67;73.63;99911.34;6067104;23;20220;-84
2022/12/26 10:18:45;;;;;;;11.23;6.72;;;;;;;12.67;73.67;99902.63;6073273;23;20188;-85
2022/12/26 10:21:23;;;;;;;9.57;7.60;;;;;;;12.66;73.78;99900.91;6062309;23;20571;-82
2022/12/26 10:24:00;;;;;;;10.07;8.07;;;;;;;12.65;73.97;99896.59;6063092;23;20932;-84
2022/12/26 10:26:33;;;;;;;7.35;6.47;;;;;;;12.62;74.25;99890.56;6062755;23;20682;-84
2022/12/26 10:29:08;;;;;;;7.22;5.47;;;;;;;12.61;74.25;99895.97;6064514;23;20231;-82
2022/12/26 10:31:41;;;;;;;6.63;4.70;;;;;;;12.60;74.45;99892.47;6062769;23;20168;-85
2022/12/26 10:34:15;;;;;;;8.15;6.72;;;;;;;12.57;74.81;99900.59;6076442;23;20181;-82
2022/12/26 10:36:53;;;;;;;8.27;5.10;;;;;;;12.53;75.46;99893.84;6072320;23;20197;-85
2022/12/26 10:39:47;;;;;;;7.20;6.22;;;;;;;12.53;75.66;99890.34;6062843;23;20195;-86
2022/12/26 10:42:26;;;;;;;7.05;5.20;;;;;;;12.53;75.62;99883.31;6063616;23;20196;-83
2022/12/26 10:44:51;;;;;;;6.75;4.75;;;;;;;12.55;75.77;99877.91;6063398;23;20336;-84
2022/12/26 10:47:39;;;;;;;8.40;5.47;;;;;;;12.54;75.85;99868.34;6063941;23;20232;-83
2022/12/26 10:50:05;;;;;;;8.63;5.57;;;;;;;12.53;75.95;99880.66;6063480;23;20185;-84
2022/12/26 10:52:39;;;;;;;5.72;4.93;;;;;;;12.53;76.13;99890.34;6069341;23;20169;-85
2022/12/26 10:55:05;;;;;;;5.90;4.13;;;;;;;12.52;76.34;99878.13;6070977;23;20177;-82
2022/12/26 10:57:35;;;;;;;5.65;4.00;;;;;;;12.50;76.58;99877.38;6071345;23;20189;-82
2022/12/26 11:00:07;;;;;;;6.03;3.75;;;;;;;12.51;76.74;99861.47;6065685;23;20181;-84
2022/12/26 11:02:32;;;;;;;6.68;3.55;;;;;;;12.50;76.77;99869.47;6063625;23;20177;-85
2022/12/26 11:05:00;;;;;;;6.00;4.07;;;;;;;12.55;76.85;99877.91;6062438;23;20909;-84
2022/12/26 11:07:30;;;;;;;6.55;3.58;;;;;;;12.53;76.98;99877.16;6063968;23;20217;-84
2022/12/26 11:09:59;;;;;;;4.15;3.78;;;;;;;12.53;77.19;99882.44;6059398;23;20189;-79
2022/12/26 11:12:37;;;;;;;2.93;2.70;;;;;;;12.55;76.89;99894.56;5864896;23;5001691;-79
2022/12/26 11:15:16;;;;;;;5.82;3.17;;;;;;;12.54;76.85;99887.63;6064983;23;20452;-82
2022/12/26 11:17:43;;;;;;;3.75;2.70;;;;;;;12.55;76.61;99883.19;6062421;23;20324;-84
2022/12/26 11:20:09;;;;;;;3.10;2.78;;;;;;;12.55;76.47;99873.47;6064382;23;20512;-84
2022/12/26 11:22:34;;;;;;;3.30;2.20;;;;;;;12.54;76.50;99863.06;6065107;23;20189;-83
2022/12/26 11:25:09;;;;;;;2.63;1.77;;;;;;;12.55;76.22;99859.47;6064399;23;20223;-84
2022/12/26 11:27:36;;;;;;;3.05;2.30;;;;;;;12.52;76.50;99863.16;6066237;23;20215;-84
2022/12/26 11:30:13;;;;;;;1.90;1.70;;;;;;;12.54;76.06;99849.88;6079181;23;20766;-84
2022/12/26 11:32:46;;;;;;;2.35;1.30;;;;;;;12.50;75.97;99857.16;6081300;23;20183;-84
2022/12/26 11:35:35;;;;;;;2.47;2.28;;;;;;;12.53;75.81;99848.19;6078876;23;21486;-84
2022/12/26 11:38:06;;;;;;;2.00;1.75;;;;;;;12.52;75.78;99863.16;6064750;23;20212;-84
2022/12/26 11:41:30;;;;;;;2.53;1.70;;;;;;;12.50;75.62;99891.41;6063559;23;20196;-85
2022/12/26 11:43:32;;;;;;;4.65;1.75;;;;;;;12.50;75.21;99882.66;6064030;23;20867;-82
2022/12/26 11:45:58;;;;;;;1.83;1.70;;;;;;;12.48;75.17;99877.50;6067528;23;20204;-84
2022/12/26 11:48:26;;;;;;;2.78;1.60;;;;;;;12.48;74.98;99887.19;6067988;23;20287;-85
2022/12/26 11:50:52;;;;;;;1.55;1.27;;;;;;;12.46;74.96;99871.47;6081589;23;20682;-83
2022/12/26 11:53:20;;;;;;;2.38;1.58;;;;;;;12.45;74.64;99879.47;6081969;23;20251;-83
2022/12/26 11:56:01;;;;;;;2.00;1.50;;;;;;;12.45;74.64;99876.84;6082062;23;20188;-85
2022/12/26 11:58:29;;;;;;;1.73;1.55;;;;;;;12.43;74.80;99881.38;6080075;23;20197;-84
2022/12/26 12:00:57;;;;;;;1.50;1.30;;;;;;;12.42;74.57;99887.59;6075401;23;20232;-84
2022/12/26 12:03:46;;;;;;;1.73;1.63;;;;;;;12.41;74.55;99886.75;6074352;23;20219;-85
2022/12/26 12:06:19;;;;;;;1.95;1.50;;;;;;;12.38;74.56;99892.22;6075248;23;20642;-85
2022/12/26 12:09:01;;;;;;;1.40;1.10;;;;;;;12.40;74.45;99887.72;6071589;23;20247;-85
2022/12/26 12:12:06;;;;;;;1.77;1.30;;;;;;;12.41;74.49;99892.03;6065590;23;20169;-85
2022/12/26 12:15:11;;;;;;;3.40;1.85;;;;;;;12.38;74.41;99895.69;6032010;23;20181;-83
2022/12/26 12:17:56;;;;;;;1.88;1.60;;;;;;;12.35;74.73;99892.44;6070277;23;20200;-86
2022/12/26 12:20:29;;;;;;;4.63;2.22;;;;;;;12.33;74.67;99895.16;6064530;23;20177;-85
2022/12/26 12:23:04;;;;;;;3.70;1.88;;;;;;;12.34;74.82;99890.72;6064601;23;20181;-85
2022/12/26 12:25:51;;;;;;;3.05;1.70;;;;;;;12.34;74.67;99888.97;6067036;23;20204;-84
2022/12/26 12:28:43;;;;;;;1.63;1.52;;;;;;;12.31;74.85;99889.16;6062082;23;20286;-83
2022/12/26 12:31:32;;;;;;;1.83;1.67;;;;;;;12.30;74.76;99870.81;6064006;23;20185;-83
2022/12/26 12:34:16;;;;;;;1.45;1.35;;;;;;;12.24;74.80;99858.91;6064211;23;20216;-84
2022/12/26 12:36:57;;;;;;;3.70;1.90;;;;;;;12.21;74.80;99837.22;6069404;23;20248;-82
2022/12/26 12:39:45;;;;;;;4.03;1.95;;;;;;;12.23;74.69;99837.94;6065506;23;20173;-85
2022/12/26 12:43:01;;;;;;;1.98;1.77;;;;;;;12.21;74.67;99859.13;6066121;23;20172;-84
2022/12/26 12:45:59;;;;;;;3.03;1.80;;;;;;;12.17;74.84;99876.88;5951673;24;20215;-86
2022/12/26 12:48:32;;;;;;;5.15;1.50;;;;;;;12.15;74.71;99876.16;6063813;23;20715;-84
2022/12/26 12:51:18;;;;;;;1.95;1.77;;;;;;;12.17;74.57;99892.69;6070545;23;20205;-83
2022/12/26 12:53:59;;;;;;;2.00;1.80;;;;;;;12.20;74.53;99891.66;6071543;23;20177;-86
2022/12/26 12:56:50;;;;;;;2.40;2.00;;;;;;;12.17;74.57;99886.56;6068271;23;20208;-86
2022/12/26 12:59:16;;;;;;;1.73;1.27;;;;;;;12.20;74.37;99867.09;6017840;23;20517;-85
2022/12/26 13:01:47;;;;;;;3.70;2.20;;;;;;;12.22;74.36;99868.69;6070210;23;20627;-83
2022/12/26 13:04:15;;;;;;;1.90;1.30;;;;;;;12.18;74.40;99864.59;6071472;23;20428;-87
2022/12/26 13:06:53;;;;;;;2.30;1.40;;;;;;;12.15;74.53;99868.28;6074113;23;20219;-87
2022/12/26 13:09:24;;;;;;;1.60;1.50;;;;;;;12.13;74.64;99854.34;6070388;23;20271;-84
2022/12/26 13:12:31;;;;;;;1.45;1.30;;;;;;;12.12;74.55;99851.81;6070604;23;20184;-85
2022/12/26 13:15:26;;;;;;;1.90;1.60;;;;;;;12.11;74.57;99856.22;6068508;23;20172;-86
2022/12/26 13:18:09;;;;;;;1.40;1.30;;;;;;;12.11;74.60;99843.06;6067912;23;20283;-85
2022/12/26 13:20:46;;;;;;;2.40;1.63;;;;;;;12.09;74.54;99837.06;6068623;23;20177;-88
2022/12/26 13:26:34;;;;;;;4.25;1.90;;;;;;;12.10;74.56;99857.19;6069005;23;20205;-87
2022/12/26 13:29:10;;;;;;;1.98;1.38;;;;;;;12.13;74.72;99845.59;6067326;23;20241;-85
2022/12/26 13:31:38;;;;;;;2.22;1.48;;;;;;;12.15;74.62;99852.47;6066364;23;20236;-86
2022/12/26 13:34:19;;;;;;;1.45;1.35;;;;;;;12.18;74.51;99848.78;6068148;23;20416;-86
2022/12/26 13:36:49;;;;;;;2.45;1.70;;;;;;;12.17;74.50;99844.44;6068977;23;20252;-87
2022/12/26 13:39:24;;;;;;;2.00;1.65;;;;;;;12.18;74.70;99848.78;6067352;23;20189;-87
2022/12/26 13:45:15;;;;;;;2.13;1.50;;;;;;;12.22;74.53;99860.78;6065276;23;20208;-87
2022/12/26 13:47:41;;;;;;;2.08;1.55;;;;;;;12.24;74.33;99852.81;6064767;23;20521;-86
2022/12/26 13:50:45;;;;;;;2.13;1.87;;;;;;;12.24;74.34;99855.44;6066211;23;20203;-88
2022/12/26 13:53:29;;;;;;;2.28;1.40;;;;;;;12.29;74.16;99855.97;6070063;23;20227;-87
2022/12/26 13:56:03;;;;;;;1.48;1.05;;;;;;;12.34;73.99;99859.13;6066468;23;20555;-86
2022/12/26 13:58:54;;;;;;;2.35;1.58;;;;;;;12.36;73.70;99852.81;6066932;23;20574;-87
2022/12/26 14:01:38;;;;;;;1.77;1.30;;;;;;;12.35;73.52;99850.28;6067932;23;20216;-87
2022/12/26 14:04:34;;;;;;;1.60;1.17;;;;;;;12.39;73.38;99847.34;6067792;23;20466;-88
2022/12/26 14:07:26;;;;;;;1.50;1.10;;;;;;;12.40;73.40;99842.91;6068293;23;20209;-86
2022/12/26 14:10:02;;;;;;;1.92;1.58;;;;;;;12.40;73.21;99840.28;6018999;23;20252;-85
2022/12/26 14:12:40;;;;;;;1.70;1.52;;;;;;;12.42;73.22;99835.72;6070453;23;20176;-87
2022/12/26 14:15:30;;;;;;;1.42;1.10;;;;;;;12.38;73.20;99844.81;6070189;23;20228;-87
2022/12/26 14:18:50;;;;;;;1.25;1.10;;;;;;;12.39;73.04;99820.13;6069505;23;20232;-89
2022/12/26 14:21:28;;;;;;;1.25;1.15;;;;;;;12.38;73.11;99813.19;5928600;24;20190;-87
2022/12/26 14:24:06;;;;;;;1.30;1.15;;;;;;;12.38;73.00;99814.03;5953696;24;20183;-86
2022/12/26 14:26:51;;;;;;;1.23;1.02;;;;;;;12.37;72.99;99832.59;6024695;23;20213;-87
2022/12/26 14:29:31;;;;;;;1.95;1.42;;;;;;;12.37;72.70;99832.59;6068907;23;20229;-87
2022/12/26 14:32:09;;;;;;;4.15;1.40;;;;;;;12.40;72.75;99832.38;6071391;23;20264;-86
2022/12/26 14:35:07;;;;;;;1.45;1.35;;;;;;;12.39;72.64;99843.84;6069818;23;20542;-86
2022/12/26 14:38:01;;;;;;;1.45;1.20;;;;;;;12.42;72.34;99838.38;5861210;23;5001221;-87
2022/12/26 14:40:34;;;;;;;2.38;1.55;;;;;;;12.44;72.41;99846.19;6117968;23;20213;-87
2022/12/26 14:43:27;;;;;;;2.08;1.60;;;;;;;12.47;71.92;99820.47;6127573;23;20175;-85
2022/12/26 14:45:53;;;;;;;1.73;1.25;;;;;;;12.45;71.97;99811.84;6125323;23;20207;-85
2022/12/26 14:48:22;;;;;;;2.85;1.95;;;;;;;12.47;71.87;99807.28;6125168;23;20237;-87
2022/12/26 14:51:14;;;;;;;1.70;1.10;;;;;;;12.49;71.69;99809.84;6124581;23;20187;-86
2022/12/26 14:53:45;;;;;;;1.67;1.20;;;;;;;12.48;71.66;99811.63;6125948;23;20180;-87
2022/12/26 14:56:33;;;;;;;1.20;1.00;;;;;;;12.46;71.50;99821.41;6123301;23;20172;-87
2022/12/26 14:59:30;;;;;;;1.70;1.02;;;;;;;12.46;71.40;99821.41;6120918;23;20176;-86
2022/12/26 15:02:08;;;;;;;2.08;1.15;;;;;;;12.46;71.15;99823.22;6123507;23;20178;-86
2022/12/26 15:05:03;;;;;;;1.38;1.08;;;;;;;12.47;70.96;99823.09;6123397;23;20551;-85
2022/12/26 15:07:42;;;;;;;1.30;1.20;;;;;;;12.50;70.85;99833.47;6113307;23;20275;-85
2022/12/26 15:10:26;;;;;;;1.90;1.33;;;;;;;12.49;71.01;99830.91;6121342;23;20179;-86
2022/12/26 15:13:03;;;;;;;1.38;0.80;;;;;;;12.50;70.66;99820.28;6120853;23;20696;-85
2022/12/26 15:16:02;;;;;;;1.38;1.27;;;;;;;12.48;70.68;99822.16;6122050;23;20229;-86
2022/12/26 15:18:50;;;;;;;1.80;1.25;;;;;;;12.47;70.72;99825.72;6123314;23;20241;-87
2022/12/26 15:21:45;;;;;;;2.00;1.10;;;;;;;12.47;70.68;99825.72;6123040;23;20617;-86
2022/12/26 15:24:29;;;;;;;1.92;1.50;;;;;;;12.47;70.75;99827.53;6129428;23;20182;-86
2022/12/26 15:27:30;;;;;;;2.03;1.83;;;;;;;12.46;70.76;99825.84;6138936;23;20219;-85
2022/12/26 15:30:17;;;;;;;1.67;1.50;;;;;;;12.43;70.91;99818.16;6089373;23;20554;-84
2022/12/26 15:33:16;;;;;;;2.75;1.42;;;;;;;12.45;70.80;99825.03;6130439;23;20182;-86
2022/12/26 15:35:51;;;;;;;1.20;1.10;;;;;;;12.47;70.72;99827.53;6130478;23;20179;-85
2022/12/26 15:38:43;;;;;;;1.75;1.40;;;;;;;12.43;70.95;99826.91;6124531;23;20737;-87
2022/12/26 15:41:13;;;;;;;3.40;1.42;;;;;;;12.42;71.06;99814.66;6114164;23;20190;-86
2022/12/26 15:44:01;;;;;;;1.40;1.20;;;;;;;12.45;71.04;99822.38;6126212;23;20181;-88
2022/12/26 15:46:33;;;;;;;2.05;1.30;;;;;;;12.44;70.98;99817.19;6130336;23;20230;-87
2022/12/26 15:49:25;;;;;;;3.05;1.50;;;;;;;12.43;71.12;99826.91;6128376;23;20562;-84
2022/12/26 15:52:16;;;;;;;2.03;1.60;;;;;;;12.43;71.03;99826.91;6120389;23;20723;-87
2022/12/26 15:55:01;;;;;;;3.17;1.67;;;;;;;12.45;71.18;99834.69;6133448;23;20176;-86
2022/12/26 15:57:30;;;;;;;3.47;1.65;;;;;;;12.42;71.21;99846.28;6133721;23;20247;-89
2022/12/26 16:00:43;;;;;;;2.25;1.63;;;;;;;12.46;71.14;99833.75;6131262;23;20192;-86
2022/12/26 16:03:23;;;;;;;1.52;1.40;;;;;;;12.46;71.17;99831.97;6095684;23;20216;-88
2022/12/26 16:05:55;;;;;;;2.15;1.30;;;;;;;12.44;71.14;99831.22;6124559;23;20199;-82
2022/12/26 16:08:52;;;;;;;2.30;1.77;;;;;;;12.46;71.13;99834.59;6124953;23;20569;-83
2022/12/26 16:11:19;;;;;;;1.88;1.40;;;;;;;12.46;71.12;99826.69;6127925;23;20194;-86
2022/12/26 16:13:58;;;;;;;2.28;1.42;;;;;;;12.45;71.09;99819.75;6127097;23;20202;-84
2022/12/26 16:16:30;;;;;;;2.30;2.03;;;;;;;12.45;71.16;99821.50;6126491;23;20269;-85
2022/12/26 16:18:57;;;;;;;3.00;1.83;;;;;;;12.42;71.29;99827.84;6126335;23;20179;-84
2022/12/26 16:24:13;;;;;;;2.75;2.22;;;;;;;12.45;71.17;99838.19;6127076;23;20183;-85
2022/12/26 16:26:42;;;;;;;3.40;2.72;;;;;;;12.46;71.30;99824.06;6126004;23;20214;-90
2022/12/26 16:29:14;;;;;;;2.00;1.75;;;;;;;12.47;70.93;99828.38;6124214;23;20404;-89
2022/12/26 16:31:40;;;;;;;4.75;2.03;;;;;;;12.47;71.13;99823.09;6126341;23;20526;-89
2022/12/26 16:34:12;;;;;;;2.50;2.10;;;;;;;12.44;71.32;99818.03;6127284;23;20176;-84
2022/12/26 16:36:39;;;;;;;6.22;2.03;;;;;;;12.44;71.24;99818.03;6127276;23;20195;-84
2022/12/26 16:39:09;;;;;;;2.90;2.40;;;;;;;12.45;71.38;99818.88;6127557;23;20187;-83
2022/12/26 16:41:58;;;;;;;4.00;2.88;;;;;;;12.46;71.31;99816.16;6129011;23;20190;-84
2022/12/26 16:44:39;;;;;;;2.78;2.25;;;;;;;12.45;71.26;99809.22;6125070;23;20492;-84
2022/12/26 16:47:10;;;;;;;3.22;1.95;;;;;;;12.49;71.10;99830.91;6124391;23;20466;-85
2022/12/26 16:49:37;;;;;;;2.40;2.05;;;;;;;12.49;71.03;99841.44;6127777;23;20179;-84
2022/12/26 16:52:06;;;;;;;4.57;1.90;;;;;;;12.53;70.99;99833.25;6128821;23;20239;-87
2022/12/26 16:54:39;;;;;;;3.05;2.60;;;;;;;12.55;70.77;99839.22;6127205;23;20234;-85
2022/12/26 16:57:17;;;;;;;3.85;3.15;;;;;;;12.57;70.72;99839.97;6126582;23;20195;-84
2022/12/26 16:59:47;;;;;;;2.55;2.25;;;;;;;12.60;70.57;99837.13;6126162;23;20179;-83
2022/12/26 17:02:18;;;;;;;3.65;2.60;;;;;;;12.62;70.67;99837.88;6125498;23;20233;-84
2022/12/26 17:04:57;;;;;;;3.08;2.10;;;;;;;12.63;70.59;99820.25;6127793;23;20195;-84
2022/12/26 17:07:23;;;;;;;3.20;2.08;;;;;;;12.59;70.63;99811.72;6127907;23;20195;-86
2022/12/26 17:09:53;;;;;;;2.65;2.05;;;;;;;12.63;70.46;99810.56;6127190;23;20198;-86
2022/12/26 17:12:23;;;;;;;3.88;2.78;;;;;;;12.63;70.54;99809.72;6128361;23;20194;-84
2022/12/26 17:14:49;;;;;;;1.70;1.60;;;;;;;12.61;70.60;99838.00;6128787;23;20231;-84
2022/12/26 17:17:21;;;;;;;2.75;2.55;;;;;;;12.59;70.52;99846.00;6127596;23;20226;-89
2022/12/26 17:19:48;;;;;;;2.97;2.38;;;;;;;12.61;70.48;99841.47;6129858;23;20188;-87
2022/12/26 17:22:14;;;;;;;3.15;2.08;;;;;;;12.62;70.51;99856.31;6129336;23;20191;-84
2022/12/26 17:24:41;;;;;;;3.73;1.87;;;;;;;12.61;70.46;99873.09;6130155;23;20234;-84
2022/12/26 17:27:24;;;;;;;2.55;2.35;;;;;;;12.68;70.25;99877.94;6127216;23;20430;-85
2022/12/26 17:29:59;;;;;;;2.22;2.03;;;;;;;12.67;70.29;99869.19;6126190;23;20205;-86
2022/12/26 17:32:44;;;;;;;3.15;2.22;;;;;;;12.70;70.17;99876.03;6123973;23;20231;-84
2022/12/26 17:35:14;;;;;;;3.90;2.10;;;;;;;12.69;70.30;99880.47;6129227;23;20174;-83
2022/12/26 17:37:48;;;;;;;2.35;1.95;;;;;;;12.70;70.12;99882.16;6132324;23;20198;-86
2022/12/26 17:40:14;;;;;;;2.60;1.58;;;;;;;12.73;69.99;99892.47;6133075;23;20191;-85
2022/12/26 17:43:06;;;;;;;2.70;1.60;;;;;;;12.73;69.98;99889.00;6134452;23;20183;-87
2022/12/26 17:45:31;;;;;;;3.70;1.98;;;;;;;12.71;69.89;99880.34;6135628;23;20202;-86
2022/12/26 17:47:57;;;;;;;2.70;1.90;;;;;;;12.74;70.00;99891.53;6138296;23;20214;-86
2022/12/26 17:50:33;;;;;;;2.47;2.20;;;;;;;12.75;69.92;99902.94;6137164;23;20179;-87
2022/12/26 17:53:12;;;;;;;4.05;2.10;;;;;;;12.75;70.01;99887.13;6102874;23;20274;-84
2022/12/26 17:55:38;;;;;;;3.03;1.70;;;;;;;12.75;69.94;99885.31;6120323;23;20702;-85
2022/12/26 17:58:03;;;;;;;2.13;1.93;;;;;;;12.75;70.04;99892.41;6125158;23;20259;-86
2022/12/26 18:00:29;;;;;;;2.07;1.60;;;;;;;12.74;69.84;99899.44;6124884;23;20407;-84
2022/12/26 18:02:55;;;;;;;3.03;1.60;;;;;;;12.73;69.87;99902.19;6130600;23;20179;-90
2022/12/26 18:05:21;;;;;;;2.53;2.00;;;;;;;12.72;69.96;99911.91;6136157;23;20203;-86
2022/12/26 18:07:49;;;;;;;1.40;1.30;;;;;;;12.76;69.93;99917.78;6137241;23;20210;-87
2022/12/26 18:10:23;;;;;;;3.00;1.60;;;;;;;12.74;70.28;99928.44;6135966;23;20171;-87
2022/12/26 18:12:49;;;;;;;4.18;3.83;;;;;;;12.71;70.60;99933.06;6134985;23;20182;-84
2022/12/26 18:15:16;;;;;;;4.45;2.78;;;;;;;12.66;71.11;99950.97;6126865;23;20174;-88
2022/12/26 18:17:43;;;;;;;4.03;2.03;;;;;;;12.64;71.29;99945.84;6128500;23;20187;-85
2022/12/26 18:20:14;;;;;;;3.63;2.97;;;;;;;12.57;71.92;99973.53;6123374;23;20554;-86
2022/12/26 18:22:40;;;;;;;5.75;2.60;;;;;;;12.56;72.08;99995.56;6123849;23;20183;-85
2022/12/26 18:25:05;;;;;;;3.33;2.30;;;;;;;12.52;72.68;100001.97;6122326;23;20217;-84
2022/12/26 18:27:32;;;;;;;4.20;2.90;;;;;;;12.44;72.98;100039.34;6122617;23;20206;-85
2022/12/26 18:29:58;;;;;;;6.10;3.97;;;;;;;12.37;73.95;100053.88;6124167;23;20182;-87
2022/12/26 18:32:29;;;;;;;6.45;4.43;;;;;;;12.26;74.24;100041.38;6124515;23;20183;-86
2022/12/26 18:34:55;;;;;;;4.07;2.25;;;;;;;12.18;74.71;100028.69;6124746;23;20626;-84
2022/12/26 18:37:23;;;;;;;2.53;2.00;;;;;;;12.12;75.19;100029.09;6126028;23;20258;-85
2022/12/26 18:39:48;;;;;;;3.65;2.40;;;;;;;12.05;75.44;100040.94;6127830;23;20179;-87
2022/12/26 18:42:15;;;;;;;2.60;2.23;;;;;;;12.02;75.51;100040.31;6125637;23;20182;-85
2022/12/26 18:44:42;;;;;;;4.68;2.75;;;;;;;11.98;75.63;100008.03;6126210;23;20406;-88
2022/12/26 18:47:15;;;;;;;1.88;1.77;;;;;;;11.95;75.61;100005.59;6126288;23;20238;-85
2022/12/26 18:49:42;;;;;;;2.78;2.50;;;;;;;11.89;75.67;100017.38;6127209;23;20669;-84
2022/12/26 18:52:08;;;;;;;1.90;1.70;;;;;;;11.87;75.85;100036.81;6127332;23;20186;-85
2022/12/26 18:54:35;;;;;;;2.03;1.80;;;;;;;11.83;75.68;100038.78;6127796;23;20180;-86
2022/12/26 18:57:01;;;;;;;5.65;2.45;;;;;;;11.80;75.77;100043.38;6127055;23;20207;-89
2022/12/26 18:59:26;;;;;;;2.40;1.42;;;;;;;11.77;75.93;100056.72;6128423;23;20186;-85
2022/12/26 19:01:52;;;;;;;2.00;1.60;;;;;;;11.72;75.75;100055.22;6129356;23;20195;-86
2022/12/26 19:04:17;;;;;;;1.53;1.43;;;;;;;11.69;75.63;100054.56;6128616;23;20170;-87
2022/12/26 19:06:42;;;;;;;2.33;1.23;;;;;;;11.65;75.39;100061.81;6129775;23;20246;-84
2022/12/26 19:09:10;;;;;;;1.60;1.40;;;;;;;11.61;75.32;100070.84;6128624;23;20184;-86
2022/12/26 19:11:36;;;;;;;1.52;1.30;;;;;;;11.56;75.09;100064.13;6129736;23;20335;-88
2022/12/26 19:14:06;;;;;;;1.50;1.10;;;;;;;11.49;74.92;100069.78;6129249;23;20197;-84
2022/12/26 19:16:32;;;;;;;1.35;1.02;;;;;;;11.43;74.85;100072.78;6128823;23;20206;-85
2022/12/26 19:18:58;;;;;;;1.40;1.20;;;;;;;11.37;74.88;100080.16;6126853;23;20179;-84
2022/12/26 19:21:23;;;;;;;1.40;1.20;;;;;;;11.29;74.70;100073.59;6130369;23;20176;-89
2022/12/26 19:23:49;;;;;;;2.17;1.20;;;;;;;11.23;74.63;100075.72;6130404;23;20157;-84
2022/12/26 19:26:16;;;;;;;3.20;1.07;;;;;;;11.17;74.59;100076.09;6126980;23;20207;-84
2022/12/26 19:28:41;;;;;;;1.05;0.60;;;;;;;11.13;74.77;100087.75;6131031;23;20498;-90
2022/12/26 19:31:14;;;;;;;1.10;0.90;;;;;;;11.09;74.67;100094.94;6128020;23;20167;-85
2022/12/26 19:33:39;;;;;;;1.75;0.80;;;;;;;11.06;74.59;100097.75;6132549;23;20206;-85
2022/12/26 19:36:06;;;;;;;1.70;1.30;;;;;;;11.06;74.50;100110.91;6131569;23;20156;-89
2022/12/26 19:38:32;;;;;;;2.15;1.80;;;;;;;11.03;74.48;100119.81;6129685;23;20546;-87
2022/12/26 19:41:08;;;;;;;3.00;1.93;;;;;;;11.01;74.62;100118.19;6132283;23;20164;-85
2022/12/26 19:43:34;;;;;;;2.08;1.65;;;;;;;10.99;74.68;100128.81;6133503;23;20226;-90
2022/12/26 19:46:04;;;;;;;3.30;1.75;;;;;;;10.98;74.93;100128.88;6136596;23;20192;-87
2022/12/26 19:48:31;;;;;;;1.50;1.40;;;;;;;10.96;74.82;100131.59;6128284;23;20200;-84
2022/12/26 19:51:07;;;;;;;1.80;1.40;;;;;;;10.96;74.83;100149.16;6119345;23;20160;-85
2022/12/26 19:53:34;;;;;;;1.30;1.20;;;;;;;10.94;74.88;100149.25;6122059;23;20151;-85
2022/12/26 19:56:09;;;;;;;2.55;1.45;;;;;;;10.94;75.10;100159.78;6127736;23;20252;-86
2022/12/26 19:58:35;;;;;;;1.20;1.05;;;;;;;10.94;74.97;100164.19;6124363;23;20151;-84
2022/12/26 20:01:22;;;;;;;1.67;1.23;;;;;;;10.94;74.92;100164.19;6128333;23;20395;-88
2022/12/26 20:03:48;;;;;;;2.60;1.83;;;;;;;10.94;75.14;100170.28;6125114;23;20617;-84
2022/12/26 20:06:19;;;;;;;3.60;1.45;;;;;;;10.94;75.20;100170.28;6124761;23;20191;-84
2022/12/26 20:08:46;;;;;;;1.38;1.10;;;;;;;10.93;75.19;100168.56;6122340;23;20160;-84
2022/12/26 20:11:18;;;;;;;2.85;2.25;;;;;;;10.91;75.24;100178.34;6123406;23;20187;-86
2022/12/26 20:13:44;;;;;;;1.20;1.00;;;;;;;10.90;75.27;100183.66;6120536;23;20212;-84
2022/12/26 20:16:18;;;;;;;1.47;1.17;;;;;;;10.89;75.27;100189.88;6123371;23;20151;-89
2022/12/26 20:18:44;;;;;;;5.00;2.78;;;;;;;10.87;75.39;100191.72;6136205;23;20394;-88
2022/12/26 20:21:11;;;;;;;4.97;2.87;;;;;;;10.85;75.32;100195.31;6140986;23;20159;-87
2022/12/26 20:23:39;;;;;;;4.57;2.40;;;;;;;10.85;75.41;100199.69;6128187;23;20172;-85
2022/12/26 20:26:09;;;;;;;3.38;1.20;;;;;;;10.83;75.25;100212.09;6118522;23;20547;-85
2022/12/26 20:28:35;;;;;;;1.90;1.15;;;;;;;10.84;75.17;100219.88;6123892;23;20639;-87
2022/12/26 20:31:12;;;;;;;1.10;1.00;;;;;;;10.87;74.89;100229.38;6127522;23;20157;-84
2022/12/26 20:33:41;;;;;;;2.78;1.42;;;;;;;10.90;74.89;100229.19;6124103;23;20753;-87
2022/12/26 20:36:14;;;;;;;1.60;1.50;;;;;;;10.92;74.63;100245.75;6123821;23;20519;-86
2022/12/26 20:38:40;;;;;;;2.25;1.80;;;;;;;10.93;74.33;100229.03;6121337;23;20196;-87
2022/12/26 20:41:08;;;;;;;2.55;1.90;;;;;;;10.96;74.39;100243.78;6105800;23;20184;-85
2022/12/26 20:43:34;;;;;;;1.40;1.25;;;;;;;10.96;73.87;100241.16;6120678;23;20529;-85
2022/12/26 20:46:12;;;;;;;2.70;1.57;;;;;;;10.98;73.54;100265.56;6122224;23;20247;-88
2022/12/26 20:48:37;;;;;;;3.38;1.63;;;;;;;10.98;73.63;100255.91;6121169;23;20196;-85
2022/12/26 20:51:06;;;;;;;2.33;1.53;;;;;;;11.01;73.44;100270.66;6118616;23;20167;-87
2022/12/26 20:53:32;;;;;;;1.58;1.40;;;;;;;11.01;73.38;100276.75;6121332;23;20255;-88
2022/12/26 20:55:58;;;;;;;2.83;1.92;;;;;;;11.02;73.08;100288.16;6120463;23;20192;-84
2022/12/26 20:58:26;;;;;;;1.50;1.40;;;;;;;10.99;72.75;100290.91;6120287;23;20179;-84
2022/12/26 21:00:56;;;;;;;1.10;1.00;;;;;;;10.95;72.93;100292.88;6124024;23;20546;-88
2022/12/26 21:03:22;;;;;;;1.30;1.00;;;;;;;10.92;73.11;100303.56;6120644;23;20160;-90
2022/12/26 21:05:47;;;;;;;2.00;1.00;;;;;;;10.90;72.97;100299.31;6122461;23;20265;-85
2022/12/26 21:08:12;;;;;;;3.30;2.20;;;;;;;10.89;73.06;100309.00;6123328;23;20180;-85
2022/12/26 21:10:38;;;;;;;1.80;1.30;;;;;;;10.88;73.13;100312.53;6127365;23;20422;-88
2022/12/26 21:13:03;;;;;;;1.80;1.33;;;;;;;10.88;73.24;100317.78;6091647;23;20680;-85
2022/12/26 21:15:29;;;;;;;1.53;1.10;;;;;;;10.88;73.29;100327.44;6066848;23;20158;-86
2022/12/26 21:17:54;;;;;;;2.57;2.33;;;;;;;10.87;73.50;100328.41;6092804;23;20262;-84
2022/12/26 21:20:20;;;;;;;8.53;6.37;;;;;;;10.85;73.48;100329.34;6092938;23;20180;-83
2022/12/26 21:22:45;;;;;;;8.43;7.63;;;;;;;10.82;73.53;100328.63;6092791;23;20263;-83
2022/12/26 21:25:11;;;;;;;2.17;2.00;;;;;;;10.80;73.36;100335.75;6093424;23;20182;-84
2022/12/26 21:27:36;;;;;;;1.97;1.27;;;;;;;10.76;73.62;100344.72;6093618;23;20277;-86
2022/12/26 21:30:01;;;;;;;1.30;1.20;;;;;;;10.74;73.72;100350.06;6067364;23;20555;-83
2022/12/26 21:32:27;;;;;;;0.87;0.77;;;;;;;10.72;73.58;100354.56;6096612;23;20613;-84
2022/12/26 21:34:52;;;;;;;1.50;1.30;;;;;;;10.72;73.50;100357.19;6094612;23;20155;-83
2022/12/26 21:40:02;;;;;;;1.92;1.05;;;;;;;10.71;73.45;100365.97;6091283;23;20255;-84
2022/12/26 21:42:28;;;;;;;0.93;0.93;;;;;;;10.71;72.90;100373.88;6095236;23;20157;-85
2022/12/26 21:44:53;;;;;;;1.83;0.70;;;;;;;10.70;72.17;100376.59;6094729;23;20803;-86
2022/12/26 21:47:22;;;;;;;1.47;1.10;;;;;;;10.71;71.37;100379.13;6096341;23;20243;-88
2022/12/26 21:49:48;;;;;;;1.90;0.90;;;;;;;10.71;70.83;100370.41;6099464;23;20522;-86
2022/12/26 21:52:13;;;;;;;1.40;1.30;;;;;;;10.72;70.32;100391.34;6098201;23;20603;-87
2022/12/26 21:57:26;;;;;;;1.27;0.93;;;;;;;10.72;69.35;100396.59;6072519;23;20185;-86
2022/12/26 21:59:55;;;;;;;1.00;0.90;;;;;;;10.70;68.97;100402.88;6100819;23;20690;-86
2022/12/26 22:05:07;;;;;;;1.38;0.85;;;;;;;10.65;68.24;100416.22;6074752;23;20460;-86
2022/12/26 22:07:32;;;;;;;1.15;0.73;;;;;;;10.63;68.27;100424.19;6099031;23;20545;-88